Etusivu
METAR-TAF:

METAR-TAF

Lentoasemat :

Kake, Alaska, Yhdysvallat

Leveyspiiri: 56-57N, Pituuspiiri: 133-54W, korkeus merenpinnasta: 52 m

Tämänhetkinen sää

Tämä raportti tehtiin 51 minuuttia sitten, kello 10.11 UTC
Tuuli 11 kn kaakosta
Lämpötila 10°C
Kosteus 93%
Ilmanpaine 987 hPa
Näkyvyys: 16.1 km
Pilvistä 500 ft:n korkeudessa
heikkoa sadetta

METAR: PAFE 171011Z AUTO 13011KT 10SM -RA OVC005 10/09 A2915 RMK AO2 P0000

Aika: 02:02 (11:02 UTC)


TAF: puuttuu

Säähavainnot ja -ennusteet yli 4000 lentoasemalta (METAR- ja TAF-raportit).

Käytössä olevat sääasemat on merkitty karttaan keltaisilla ja punaisilla pisteillä.

Aseta hiiri pisteen päälle nähdäksesi sääaseman nimen.

Klikkaa sitten nähdäksesi säähavainnot ja -ennusteet.

Kartan vaihtaminen: klikkaa mustalla rastilla varustettuja vihreitä pisteitä, niin voit zoomata sisään; viivalla varustettua vihreää pistettä, niin voit zoomata ulos tai vihreitä nuolia, niin pääset viereisille kartoille.


METAR-TAF: